Time;durP1;ratioP1;P1;durP2;ratioP2;P2;SDS_P1;SDS_P2;PMS_P1;PMS_P2;Temp;Humidity;BMP_temperature;BMP_pressure;BME280_temperature;BME280_humidity;BME280_pressure;Samples;Min_cycle;Max_cycle;Signal;HPM_P1;HPM_P2
2023/11/28 00:01:59;;;;;;;;;;;;;;;5.75;46.05;100072.00;5039677;28;20453;-81
2023/11/28 00:04:24;;;;;;;;;;;;;;;5.74;46.16;100062.44;5038977;28;19967;-81
2023/11/28 00:06:50;;;;;;;;;;;;;;;5.76;46.11;100076.28;5039593;28;20296;-81
2023/11/28 00:09:17;;;;;;;;;;;;;;;5.74;46.24;100066.91;5039786;28;19956;-81
2023/11/28 00:11:42;;;;;;;;;;;;;;;5.72;46.15;100066.31;5041931;28;19990;-81
2023/11/28 00:14:07;;;;;;;;;;;;;;;5.69;46.37;100067.59;5037149;28;20396;-81
2023/11/28 00:16:33;;;;;;;;;;;;;;;5.64;46.14;100064.03;5037649;28;20667;-81
2023/11/28 00:18:58;;;;;;;;;;;;;;;5.63;46.37;100065.06;5041869;28;19942;-81
2023/11/28 00:21:23;;;;;;;;;;;;;;;5.59;46.30;100056.78;5043837;28;19921;-81
2023/11/28 00:23:49;;;;;;;;;;;;;;;5.61;46.42;100062.66;5038720;28;19920;-81
2023/11/28 00:26:14;;;;;;;;;;;;;;;5.60;46.36;100055.72;5039452;28;19927;-81
2023/11/28 00:28:39;;;;;;;;;;;;;;;5.61;46.26;100061.84;5045351;28;19927;-81
2023/11/28 00:31:05;;;;;;;;;;;;;;;5.60;46.21;100060.22;5041902;28;19947;-81
2023/11/28 00:33:30;;;;;;;;;;;;;;;5.58;46.20;100052.50;5042324;28;19975;-81
2023/11/28 00:35:55;;;;;;;;;;;;;;;5.56;46.11;100062.53;5038721;28;19921;-81
2023/11/28 00:38:21;;;;;;;;;;;;;;;5.54;46.16;100066.44;5037157;28;19921;-81
2023/11/28 00:40:48;;;;;;;;;;;;;;;5.51;46.16;100054.44;5041846;28;19924;-81
2023/11/28 00:43:15;;;;;;;;;;;;;;;5.49;46.04;100056.53;5042863;28;19917;-81
2023/11/28 00:45:40;;;;;;;;;;;;;;;5.44;46.12;100051.91;5036633;28;19928;-81
2023/11/28 00:48:06;;;;;;;;;;;;;;;5.42;46.37;100055.84;5039279;28;19921;-82
2023/11/28 00:50:31;;;;;;;;;;;;;;;5.39;46.09;100062.44;5040249;28;19936;-81
2023/11/28 00:52:56;;;;;;;;;;;;;;;5.38;46.16;100052.81;5039342;28;19917;-81
2023/11/28 00:55:23;;;;;;;;;;;;;;;5.37;46.17;100056.50;5042350;28;20549;-82
2023/11/28 00:57:49;;;;;;;;;;;;;;;5.36;46.31;100054.91;5042866;28;19925;-81
2023/11/28 01:00:15;;;;;;;;;;;;;;;5.36;46.42;100049.59;5042200;28;19942;-81
2023/11/28 01:02:40;;;;;;;;;;;;;;;5.36;46.20;100049.59;5048502;28;19990;-82
2023/11/28 01:05:08;;;;;;;;;;;;;;;5.37;46.50;100045.09;5044028;28;19920;-82
2023/11/28 01:07:34;;;;;;;;;;;;;;;5.36;46.34;100041.63;5048029;28;19920;-81
2023/11/28 01:09:59;;;;;;;;;;;;;;;5.38;46.20;100046.69;5048098;28;19928;-82
2023/11/28 01:12:24;;;;;;;;;;;;;;;5.36;46.32;100046.94;5048843;28;20422;-82
2023/11/28 01:14:50;;;;;;;;;;;;;;;5.36;46.41;100048.78;5047497;28;20384;-81
2023/11/28 01:17:15;;;;;;;;;;;;;;;5.36;46.50;100051.44;5044431;28;19971;-81
2023/11/28 01:19:40;;;;;;;;;;;;;;;5.37;46.33;100045.09;5044436;28;19924;-82
2023/11/28 01:22:11;;;;;;;;;;;;;;;5.37;46.19;100040.56;5045243;28;19943;-81
2023/11/28 01:24:36;;;;;;;;;;;;;;;5.39;46.34;100043.84;5047532;28;19970;-81
2023/11/28 01:27:02;;;;;;;;;;;;;;;5.40;46.67;100055.28;5048603;28;20449;-82
2023/11/28 01:29:27;;;;;;;;;;;;;;;5.40;46.37;100053.41;5048472;28;19942;-81
2023/11/28 01:31:52;;;;;;;;;;;;;;;5.42;46.41;100047.88;5046698;28;19920;-81
2023/11/28 01:34:18;;;;;;;;;;;;;;;5.42;46.48;100053.19;5042598;28;19921;-81
2023/11/28 01:36:43;;;;;;;;;;;;;;;5.42;46.44;100050.53;5047919;28;20058;-83
2023/11/28 01:39:12;;;;;;;;;;;;;;;5.44;46.30;100051.09;5045202;28;19917;-81
2023/11/28 01:41:38;;;;;;;;;;;;;;;5.42;46.19;100048.69;5041801;28;19920;-81
2023/11/28 01:44:04;;;;;;;;;;;;;;;5.43;46.19;100049.50;5047950;28;19920;-81
2023/11/28 01:46:31;;;;;;;;;;;;;;;5.42;46.46;100050.53;5045782;28;19917;-82
2023/11/28 01:48:57;;;;;;;;;;;;;;;5.40;46.38;100039.34;5043267;28;19975;-81
2023/11/28 01:51:22;;;;;;;;;;;;;;;5.39;46.43;100043.84;5041864;28;20814;-82
2023/11/28 01:53:48;;;;;;;;;;;;;;;5.37;46.28;100048.53;5047291;28;20474;-82
2023/11/28 01:56:13;;;;;;;;;;;;;;;5.37;46.39;100048.53;5046259;28;19931;-82
2023/11/28 01:58:39;;;;;;;;;;;;;;;5.39;46.53;100046.50;5048782;28;19948;-81
2023/11/28 02:01:05;;;;;;;;;;;;;;;5.38;46.40;100046.69;5047153;28;19925;-81
2023/11/28 02:03:31;;;;;;;;;;;;;;;5.37;46.22;100042.41;5045604;28;19928;-82
2023/11/28 02:05:57;;;;;;;;;;;;;;;5.37;46.49;100042.41;5044957;28;19920;-81
2023/11/28 02:08:22;;;;;;;;;;;;;;;5.37;46.40;100045.88;5049198;28;19921;-82
2023/11/28 02:10:47;;;;;;;;;;;;;;;5.37;46.47;100035.25;5042041;28;19921;-81
2023/11/28 02:13:13;;;;;;;;;;;;;;;5.37;46.49;100039.75;5044284;28;20369;-81
2023/11/28 02:15:38;;;;;;;;;;;;;;;5.38;46.46;100044.03;5046693;28;20055;-81
2023/11/28 02:18:03;;;;;;;;;;;;;;;5.37;46.46;100035.25;5046049;28;19959;-82
2023/11/28 02:20:29;;;;;;;;;;;;;;;5.39;46.43;100035.06;5044821;28;19917;-81
2023/11/28 02:22:54;;;;;;;;;;;;;;;5.39;46.37;100033.22;5041293;28;19944;-81
2023/11/28 02:25:20;;;;;;;;;;;;;;;5.42;46.37;100032.75;5042421;28;19924;-81
2023/11/28 02:27:45;;;;;;;;;;;;;;;5.42;46.31;100031.94;5038337;28;19928;-82
2023/11/28 02:30:11;;;;;;;;;;;;;;;5.42;46.65;100030.09;5041132;28;20477;-81
2023/11/28 02:32:36;;;;;;;;;;;;;;;5.41;46.41;100025.00;5043181;28;19931;-82
2023/11/28 02:35:02;;;;;;;;;;;;;;;5.41;46.46;100025.00;5049014;28;19917;-82
2023/11/28 02:37:27;;;;;;;;;;;;;;;5.41;46.55;100022.34;5045239;28;19921;-82
2023/11/28 02:39:52;;;;;;;;;;;;;;;5.42;46.69;100018.66;5046575;28;19917;-82
2023/11/28 02:42:18;;;;;;;;;;;;;;;5.42;46.58;100022.13;5048390;28;20668;-82
2023/11/28 02:44:43;;;;;;;;;;;;;;;5.44;46.44;100019.22;5043955;28;20312;-82
2023/11/28 02:47:08;;;;;;;;;;;;;;;5.45;46.48;100015.53;5045081;28;20316;-82
2023/11/28 02:49:34;;;;;;;;;;;;;;;5.46;46.71;100014.47;5045376;28;20304;-82
2023/11/28 02:51:59;;;;;;;;;;;;;;;5.43;46.75;100014.94;5044791;28;19920;-81
2023/11/28 02:54:24;;;;;;;;;;;;;;;5.41;46.62;100011.72;5043834;28;19992;-81
2023/11/28 02:56:50;;;;;;;;;;;;;;;5.37;46.71;100007.88;5042715;28;19974;-81
2023/11/28 02:59:15;;;;;;;;;;;;;;;5.37;46.97;100008.69;5047150;28;19974;-82
2023/11/28 03:01:41;;;;;;;;;;;;;;;5.38;46.79;100009.50;5042451;28;19935;-81
2023/11/28 03:04:06;;;;;;;;;;;;;;;5.38;46.76;100004.19;5043736;28;20379;-81
2023/11/28 03:06:31;;;;;;;;;;;;;;;5.39;46.74;100000.53;5042575;28;19935;-82
2023/11/28 03:08:57;;;;;;;;;;;;;;;5.40;46.82;100000.28;5045229;28;19925;-82
2023/11/28 03:11:22;;;;;;;;;;;;;;;5.40;46.87;99996.81;5041785;28;19929;-81
2023/11/28 03:13:47;;;;;;;;;;;;;;;5.40;46.80;99987.00;5047380;28;20127;-81
2023/11/28 03:16:13;;;;;;;;;;;;;;;5.39;46.68;99989.91;5047384;28;19921;-82
2023/11/28 03:18:38;;;;;;;;;;;;;;;5.38;46.77;99983.75;5042471;28;19925;-82
2023/11/28 03:21:04;;;;;;;;;;;;;;;5.37;46.98;99994.59;5043538;28;19924;-82
2023/11/28 03:23:29;;;;;;;;;;;;;;;5.36;46.77;99998.31;5041948;28;19923;-83
2023/11/28 03:25:54;;;;;;;;;;;;;;;5.33;46.91;99990.81;5040811;28;19920;-83
2023/11/28 03:28:20;;;;;;;;;;;;;;;5.32;46.91;99986.53;5043271;28;19920;-82
2023/11/28 03:30:45;;;;;;;;;;;;;;;5.33;46.93;99988.16;5050419;28;19920;-81
2023/11/28 03:33:10;;;;;;;;;;;;;;;5.33;46.81;99996.13;5043845;28;19923;-82
2023/11/28 03:35:35;;;;;;;;;;;;;;;5.31;47.17;99985.72;5045096;28;19962;-82
2023/11/28 03:38:01;;;;;;;;;;;;;;;5.32;47.01;99983.88;5042289;28;20373;-81
2023/11/28 03:40:26;;;;;;;;;;;;;;;5.31;47.12;99984.91;5043474;28;20393;-82
2023/11/28 03:42:51;;;;;;;;;;;;;;;5.30;46.84;99980.66;5048454;28;20040;-82
2023/11/28 03:45:17;;;;;;;;;;;;;;;5.28;46.97;99978.22;5043894;28;19912;-81
2023/11/28 03:47:42;;;;;;;;;;;;;;;5.26;47.02;99982.97;5044139;28;19947;-82
2023/11/28 03:50:08;;;;;;;;;;;;;;;5.27;47.05;99983.78;5045106;28;19925;-82
2023/11/28 03:52:33;;;;;;;;;;;;;;;5.25;47.07;99973.38;5046484;28;19928;-83
2023/11/28 03:54:59;;;;;;;;;;;;;;;5.23;47.06;99982.63;5042581;28;19917;-82
2023/11/28 03:57:24;;;;;;;;;;;;;;;5.20;46.97;99972.44;5044225;28;19920;-82
2023/11/28 03:59:49;;;;;;;;;;;;;;;5.19;47.16;99970.81;5041350;28;19916;-81
2023/11/28 04:02:15;;;;;;;;;;;;;;;5.19;47.17;99976.13;5043353;28;19917;-83
2023/11/28 04:04:40;;;;;;;;;;;;;;;5.18;46.97;99971.88;5043311;28;19924;-82
2023/11/28 04:07:05;;;;;;;;;;;;;;;5.21;47.10;99971.44;5043819;28;19928;-82
2023/11/28 04:09:31;;;;;;;;;;;;;;;5.22;47.19;99973.03;5044433;28;20015;-82
2023/11/28 04:11:56;;;;;;;;;;;;;;;5.24;47.00;99968.31;5043545;28;19916;-83
2023/11/28 04:14:21;;;;;;;;;;;;;;;5.25;47.24;99965.41;5040096;28;20028;-82
2023/11/28 04:16:47;;;;;;;;;;;;;;;5.24;47.13;99965.66;5046258;28;19921;-82
2023/11/28 04:19:13;;;;;;;;;;;;;;;5.22;47.20;99967.72;5041931;28;19917;-82
2023/11/28 04:21:39;;;;;;;;;;;;;;;5.24;47.05;99970.97;5040371;28;20519;-82
2023/11/28 04:24:04;;;;;;;;;;;;;;;5.21;47.15;99968.78;5044822;28;19924;-82
2023/11/28 04:26:30;;;;;;;;;;;;;;;5.20;47.23;99972.44;5039626;28;20801;-82
2023/11/28 04:28:55;;;;;;;;;;;;;;;5.18;47.13;99966.56;5042347;28;19955;-81
2023/11/28 04:31:21;;;;;;;;;;;;;;;5.15;47.14;99971.28;5040658;28;19920;-82
2023/11/28 04:33:46;;;;;;;;;;;;;;;5.15;47.49;99971.28;5039429;28;19925;-82
2023/11/28 04:36:15;;;;;;;;;;;;;;;5.14;47.49;99967.03;5044137;28;20293;-82
2023/11/28 04:38:40;;;;;;;;;;;;;;;5.15;47.37;99965.19;5043675;28;19925;-82
2023/11/28 04:41:08;;;;;;;;;;;;;;;5.14;47.33;99972.34;5040486;28;19931;-81
2023/11/28 04:43:33;;;;;;;;;;;;;;;5.16;47.40;99974.75;5046529;28;20558;-82
2023/11/28 04:45:58;;;;;;;;;;;;;;;5.16;47.20;99967.59;5042074;28;20011;-82
2023/11/28 04:48:23;;;;;;;;;;;;;;;5.16;47.30;99967.59;5040562;28;19931;-82
2023/11/28 04:50:49;;;;;;;;;;;;;;;5.14;47.07;99967.03;5042235;28;19931;-82
2023/11/28 04:53:14;;;;;;;;;;;;;;;5.12;47.29;99963.78;5044342;28;19931;-82
2023/11/28 04:55:40;;;;;;;;;;;;;;;5.13;47.34;99962.75;5045487;28;19928;-82
2023/11/28 04:58:05;;;;;;;;;;;;;;;5.14;47.37;99968.88;5041379;28;20630;-82
2023/11/28 05:00:30;;;;;;;;;;;;;;;5.12;47.54;99966.44;5042507;28;19921;-82
2023/11/28 05:02:55;;;;;;;;;;;;;;;5.15;47.41;99973.13;5046428;28;19928;-82
2023/11/28 05:05:21;;;;;;;;;;;;;;;5.18;47.33;99977.19;5045017;28;19917;-82
2023/11/28 05:07:46;;;;;;;;;;;;;;;5.16;47.34;99980.06;5046614;28;19960;-81
2023/11/28 05:10:11;;;;;;;;;;;;;;;5.12;47.35;99970.94;5043415;28;20003;-82
2023/11/28 05:12:37;;;;;;;;;;;;;;;5.11;47.57;99972.81;5047942;28;19956;-82
2023/11/28 05:15:02;;;;;;;;;;;;;;;5.12;47.45;99974.41;5043088;28;20011;-82
2023/11/28 05:17:28;;;;;;;;;;;;;;;5.10;47.34;99971.19;5044609;28;20035;-82
2023/11/28 05:19:53;;;;;;;;;;;;;;;5.09;47.48;99968.75;5043263;28;20349;-82
2023/11/28 05:22:18;;;;;;;;;;;;;;;5.11;47.42;99974.66;5041753;28;19924;-82
2023/11/28 05:24:45;;;;;;;;;;;;;;;5.13;47.58;99980.53;5039022;28;19927;-82
2023/11/28 05:27:10;;;;;;;;;;;;;;;5.14;47.35;99985.59;5040719;28;20269;-82
2023/11/28 05:29:36;;;;;;;;;;;;;;;5.16;47.29;99988.84;5040498;28;19987;-83
2023/11/28 05:32:01;;;;;;;;;;;;;;;5.20;46.97;99985.72;5038715;28;19943;-82
2023/11/28 05:34:26;;;;;;;;;;;;;;;5.20;47.24;99983.88;5038247;28;19943;-82
2023/11/28 05:36:52;;;;;;;;;;;;;;;5.20;47.40;99988.38;5040925;28;19925;-82
2023/11/28 05:39:17;;;;;;;;;;;;;;;5.19;47.37;99986.75;5041708;28;19917;-82
2023/11/28 05:41:42;;;;;;;;;;;;;;;5.17;47.35;99987.00;5044802;28;19927;-82
2023/11/28 05:44:08;;;;;;;;;;;;;;;5.16;47.30;99988.84;5047367;28;19940;-83
2023/11/28 05:46:33;;;;;;;;;;;;;;;5.11;47.50;99993.25;5047615;28;19920;-82
2023/11/28 05:49:00;;;;;;;;;;;;;;;5.08;47.31;99994.50;5046601;28;20048;-83
2023/11/28 05:51:25;;;;;;;;;;;;;;;5.06;47.44;99999.25;5048365;28;19925;-83
2023/11/28 05:53:50;;;;;;;;;;;;;;;5.06;47.36;100001.09;5043226;28;20343;-82
2023/11/28 05:56:17;;;;;;;;;;;;;;;5.06;47.44;100011.72;5047354;28;19925;-83
2023/11/28 05:58:42;;;;;;;;;;;;;;;5.06;47.55;100015.19;5043213;28;19925;-82
2023/11/28 06:01:08;;;;;;;;;;;;;;;5.05;47.38;100010.91;5049119;28;19924;-82
2023/11/28 06:03:33;;;;;;;;;;;;;;;5.03;47.46;100012.97;5042698;28;19921;-82
2023/11/28 06:05:59;;;;;;;;;;;;;;;5.00;47.53;100012.59;5047212;28;20015;-82
2023/11/28 06:08:24;;;;;;;;;;;;;;;4.98;47.54;100017.34;5044467;28;21627;-82
2023/11/28 06:10:50;;;;;;;;;;;;;;;4.94;47.40;100016.19;5043360;28;20282;-83
2023/11/28 06:13:16;;;;;;;;;;;;;;;4.92;47.54;100011.13;5047434;28;19921;-82
2023/11/28 06:15:42;;;;;;;;;;;;;;;4.90;47.46;100015.84;5045805;28;19925;-83
2023/11/28 06:18:09;;;;;;;;;;;;;;;4.87;47.65;100018.97;5044877;28;19925;-82
2023/11/28 06:20:34;;;;;;;;;;;;;;;4.86;47.70;100033.28;5043095;28;20385;-82
2023/11/28 06:23:00;;;;;;;;;;;;;;;4.83;47.43;100031.84;5046277;28;19959;-83
2023/11/28 06:25:25;;;;;;;;;;;;;;;4.81;47.67;100044.53;5046695;28;20011;-82
2023/11/28 06:27:50;;;;;;;;;;;;;;;4.78;47.62;100057.47;5039883;28;19923;-83
2023/11/28 06:30:16;;;;;;;;;;;;;;;4.78;47.69;100057.47;5046104;28;19932;-82
2023/11/28 06:32:41;;;;;;;;;;;;;;;4.73;47.79;100046.72;5044122;28;19921;-82
2023/11/28 06:35:09;;;;;;;;;;;;;;;4.70;47.86;100050.66;5040945;28;20377;-83
2023/11/28 06:37:34;;;;;;;;;;;;;;;4.70;47.87;100061.25;5045436;28;19995;-82
2023/11/28 06:40:00;;;;;;;;;;;;;;;4.69;48.07;100058.84;5043791;28;20012;-82
2023/11/28 06:42:25;;;;;;;;;;;;;;;4.70;47.69;100061.25;5042815;28;20472;-82
2023/11/28 06:44:51;;;;;;;;;;;;;;;4.69;47.78;100072.91;5042368;28;19928;-82
2023/11/28 06:47:16;;;;;;;;;;;;;;;4.71;47.83;100070.84;5042978;28;19917;-82
2023/11/28 06:49:45;;;;;;;;;;;;;;;4.71;47.73;100070.84;5042906;28;19963;-82
2023/11/28 06:52:10;;;;;;;;;;;;;;;4.71;47.95;100075.34;5044456;28;19964;-82
2023/11/28 06:54:36;;;;;;;;;;;;;;;4.74;47.72;100077.53;5040505;28;19956;-82
2023/11/28 06:57:01;;;;;;;;;;;;;;;4.76;47.79;100075.47;5050028;28;19935;-83
2023/11/28 06:59:26;;;;;;;;;;;;;;;4.79;47.88;100075.00;5046937;28;20004;-82
2023/11/28 07:01:52;;;;;;;;;;;;;;;4.81;47.83;100072.94;5042313;28;19947;-82
2023/11/28 07:04:17;;;;;;;;;;;;;;;4.82;47.78;100085.97;5046697;28;19923;-82
2023/11/28 07:06:42;;;;;;;;;;;;;;;4.85;47.88;100084.75;5043848;28;19931;-83
2023/11/28 07:09:08;;;;;;;;;;;;;;;4.84;47.76;100078.59;5047207;28;19925;-82
2023/11/28 07:11:34;;;;;;;;;;;;;;;4.88;47.78;100084.28;5046156;28;19998;-82
2023/11/28 07:14:00;;;;;;;;;;;;;;;4.89;47.71;100082.44;5042798;28;19935;-82
2023/11/28 07:16:26;;;;;;;;;;;;;;;4.92;47.75;100088.09;5045032;28;19925;-82
2023/11/28 07:18:51;;;;;;;;;;;;;;;4.93;47.97;100092.38;5045565;28;20015;-82
2023/11/28 07:21:16;;;;;;;;;;;;;;;4.94;47.86;100083.38;5043728;28;19928;-82
2023/11/28 07:23:43;;;;;;;;;;;;;;;4.95;48.01;100092.13;5042519;28;20381;-82
2023/11/28 07:26:09;;;;;;;;;;;;;;;4.98;47.61;100084.53;5044278;28;19928;-82
2023/11/28 07:28:35;;;;;;;;;;;;;;;5.00;47.77;100081.63;5048115;28;19946;-81
2023/11/28 07:31:00;;;;;;;;;;;;;;;5.02;47.30;100080.38;5040236;28;19917;-83
2023/11/28 07:33:26;;;;;;;;;;;;;;;5.03;47.77;100076.72;5046163;28;19920;-82
2023/11/28 07:35:51;;;;;;;;;;;;;;;5.05;47.74;100082.59;5043892;28;20339;-82
2023/11/28 07:38:17;;;;;;;;;;;;;;;5.07;47.69;100075.22;5045811;28;19916;-82
2023/11/28 07:40:42;;;;;;;;;;;;;;;5.10;47.68;100072.09;5040199;28;20361;-82
2023/11/28 07:43:08;;;;;;;;;;;;;;;5.13;47.82;100074.28;5038169;28;20483;-83
2023/11/28 07:45:33;;;;;;;;;;;;;;;5.14;47.70;100075.09;5044010;28;19916;-82
2023/11/28 07:47:58;;;;;;;;;;;;;;;5.15;47.78;100080.16;5040249;28;20014;-82
2023/11/28 07:50:24;;;;;;;;;;;;;;;5.18;47.69;100083.41;5041081;28;19924;-82
2023/11/28 07:52:50;;;;;;;;;;;;;;;5.18;47.63;100084.22;5038400;28;19917;-82
2023/11/28 07:55:16;;;;;;;;;;;;;;;5.20;47.66;100086.63;5043513;28;20007;-82
2023/11/28 07:57:41;;;;;;;;;;;;;;;5.23;47.62;100091.50;5044715;28;20400;-82
2023/11/28 08:00:07;;;;;;;;;;;;;;;5.26;47.55;100091.06;5046044;28;19976;-82
2023/11/28 08:02:33;;;;;;;;;;;;;;;5.28;47.82;100095.09;5042058;28;19951;-82
2023/11/28 08:04:59;;;;;;;;;;;;;;;5.31;47.63;100099.13;5039573;28;19920;-82
2023/11/28 08:07:24;;;;;;;;;;;;;;;5.34;47.43;100096.81;5039430;28;20446;-82
2023/11/28 08:09:49;;;;;;;;;;;;;;;5.36;47.63;100099.25;5040377;28;19932;-82
2023/11/28 08:12:15;;;;;;;;;;;;;;;5.37;47.53;100108.84;5040415;28;19924;-82
2023/11/28 08:14:40;;;;;;;;;;;;;;;5.36;47.47;100099.25;5042482;28;19924;-83
2023/11/28 08:17:05;;;;;;;;;;;;;;;5.37;47.39;100104.34;5039778;28;19929;-82
2023/11/28 08:19:32;;;;;;;;;;;;;;;5.40;47.34;100109.22;5041339;28;19920;-82
2023/11/28 08:21:58;;;;;;;;;;;;;;;5.41;47.33;100112.69;5042342;28;19943;-82
2023/11/28 08:24:23;;;;;;;;;;;;;;;5.43;47.44;100118.56;5039889;28;20300;-81
2023/11/28 08:26:48;;;;;;;;;;;;;;;5.44;47.54;100109.56;5036925;28;20451;-82
2023/11/28 08:29:16;;;;;;;;;;;;;;;5.46;47.33;100118.91;5044250;28;20208;-82
2023/11/28 08:31:41;;;;;;;;;;;;;;;5.46;47.38;100113.59;5046540;28;19926;-82
2023/11/28 08:34:06;;;;;;;;;;;;;;;5.47;47.50;100111.75;5041930;28;21302;-82
2023/11/28 08:36:32;;;;;;;;;;;;;;;5.49;47.42;100112.31;5043121;28;19976;-82
2023/11/28 08:38:57;;;;;;;;;;;;;;;5.53;47.57;100116.13;5038003;28;19917;-82
2023/11/28 08:41:22;;;;;;;;;;;;;;;5.54;47.24;100114.28;5044081;28;20366;-82
2023/11/28 08:43:48;;;;;;;;;;;;;;;5.53;47.38;100113.47;5038780;28;19952;-82
2023/11/28 08:46:14;;;;;;;;;;;;;;;5.55;47.47;100110.59;5043223;28;19928;-82
2023/11/28 08:48:42;;;;;;;;;;;;;;;5.54;47.38;100115.09;5040807;28;19932;-82
2023/11/28 08:51:08;;;;;;;;;;;;;;;5.55;47.65;100116.72;5049011;28;19946;-82
2023/11/28 08:53:33;;;;;;;;;;;;;;;5.59;47.47;100120.53;5047632;28;20680;-82
2023/11/28 08:55:58;;;;;;;;;;;;;;;5.62;47.48;100117.41;5043233;28;20014;-83
2023/11/28 08:58:24;;;;;;;;;;;;;;;5.67;47.51;100119.38;5043102;28;19987;-82
2023/11/28 09:00:53;;;;;;;;;;;;;;;5.70;47.31;100130.34;5040851;28;19932;-82
2023/11/28 09:03:20;;;;;;;;;;;;;;;5.73;47.39;100135.19;5035863;28;20355;-82
2023/11/28 09:05:45;;;;;;;;;;;;;;;5.79;47.46;100135.34;5039580;28;19921;-83
2023/11/28 09:08:11;;;;;;;;;;;;;;;5.81;47.46;100133.25;5040880;28;19970;-82
2023/11/28 09:10:36;;;;;;;;;;;;;;;5.83;47.32;100133.84;5037541;28;19979;-83
2023/11/28 09:13:02;;;;;;;;;;;;;;;5.85;47.30;100142.38;5040051;28;19917;-82
2023/11/28 09:15:28;;;;;;;;;;;;;;;5.90;47.08;100145.19;5038671;28;19929;-83
2023/11/28 09:17:53;;;;;;;;;;;;;;;5.96;47.09;100145.06;5038133;28;19920;-81
2023/11/28 09:20:19;;;;;;;;;;;;;;;6.02;47.11;100146.00;5045377;28;19931;-82
2023/11/28 09:22:44;;;;;;;;;;;;;;;6.08;47.08;100147.72;5046428;28;20440;-82
2023/11/28 09:25:09;;;;;;;;;;;;;;;6.10;46.91;100137.63;5051302;28;20012;-82
2023/11/28 09:27:35;;;;;;;;;;;;;;;6.18;47.10;100133.84;5049365;28;19917;-83
2023/11/28 09:30:00;;;;;;;;;;;;;;;6.21;46.98;100139.50;5049766;28;19921;-82
2023/11/28 09:32:27;;;;;;;;;;;;;;;6.24;46.71;100139.00;5045099;28;19920;-83
2023/11/28 09:34:53;;;;;;;;;;;;;;;6.25;46.61;100153.13;5045365;28;19920;-82
2023/11/28 09:37:18;;;;;;;;;;;;;;;6.26;46.82;100152.06;5045791;28;20309;-82
2023/11/28 09:39:43;;;;;;;;;;;;;;;6.26;46.90;100144.91;5045652;28;20460;-82
2023/11/28 09:42:10;;;;;;;;;;;;;;;6.30;46.79;100148.75;5046381;28;19924;-82
2023/11/28 09:44:36;;;;;;;;;;;;;;;6.32;46.45;100151.16;5046776;28;20311;-83
2023/11/28 09:47:10;;;;;;;;;;;;;;;6.28;46.39;100153.50;5046420;28;19927;-82
2023/11/28 09:49:42;;;;;;;;;;;;;;;6.29;46.64;100155.09;5044940;28;19920;-82
2023/11/28 09:52:08;;;;;;;;;;;;;;;6.30;47.02;100148.75;5043203;28;19924;-82
2023/11/28 09:54:37;;;;;;;;;;;;;;;6.35;46.57;100146.19;5044288;28;19920;-82
2023/11/28 09:57:04;;;;;;;;;;;;;;;6.41;46.69;100149.75;5044508;28;19921;-82
2023/11/28 09:59:30;;;;;;;;;;;;;;;6.45;46.63;100148.22;5041846;28;19947;-82
2023/11/28 10:01:55;;;;;;;;;;;;;;;6.51;46.40;100146.50;5039411;28;20404;-82
2023/11/28 10:04:22;;;;;;;;;;;;;;;6.54;46.29;100146.00;5040845;28;19924;-82
2023/11/28 10:06:49;;;;;;;;;;;;;;;6.61;46.46;100147.47;5046595;28;19928;-82
2023/11/28 10:09:16;;;;;;;;;;;;;;;6.66;46.32;100150.25;5041488;28;19929;-83
2023/11/28 10:11:42;;;;;;;;;;;;;;;6.70;46.05;100145.28;5045528;28;19928;-83
2023/11/28 10:14:08;;;;;;;;;;;;;;;6.73;46.01;100147.44;5050305;28;19925;-82
2023/11/28 10:16:41;;;;;;;;;;;;;;;6.75;46.29;100148.03;5046104;28;19966;-83
2023/11/28 10:19:07;;;;;;;;;;;;;;;6.80;46.23;100142.78;5045182;28;19944;-83
2023/11/28 10:21:33;;;;;;;;;;;;;;;6.86;46.22;100143.72;5037081;28;19931;-83
2023/11/28 10:23:58;;;;;;;;;;;;;;;6.94;46.27;100143.31;5049517;28;20004;-82
2023/11/28 10:26:24;;;;;;;;;;;;;;;7.01;46.31;100151.19;5043072;28;20023;-83
2023/11/28 10:28:49;;;;;;;;;;;;;;;7.09;46.15;100142.78;5045052;28;19921;-83
2023/11/28 10:31:16;;;;;;;;;;;;;;;7.15;45.84;100142.63;5046029;28;19940;-82
2023/11/28 10:33:42;;;;;;;;;;;;;;;7.22;45.45;100139.81;5047283;28;20365;-84
2023/11/28 10:36:08;;;;;;;;;;;;;;;7.26;45.68;100133.75;5048913;28;19963;-82
2023/11/28 10:38:34;;;;;;;;;;;;;;;7.32;45.75;100131.19;5043242;28;19921;-83
2023/11/28 10:41:01;;;;;;;;;;;;;;;7.30;45.25;100130.63;5042836;28;20057;-82
2023/11/28 10:43:28;;;;;;;;;;;;;;;7.31;45.63;100148.22;5044611;28;19920;-83
2023/11/28 10:45:54;;;;;;;;;;;;;;;7.35;45.13;100144.81;5039799;28;19920;-83
2023/11/28 10:48:20;;;;;;;;;;;;;;;7.38;45.11;100138.22;5042800;28;19960;-83
2023/11/28 10:50:46;;;;;;;;;;;;;;;7.41;45.47;100148.41;5041192;28;20672;-82
2023/11/28 10:53:12;;;;;;;;;;;;;;;7.48;44.95;100147.19;5037298;28;19917;-82
2023/11/28 10:55:41;;;;;;;;;;;;;;;7.53;45.35;100152.59;5040800;28;19924;-82
2023/11/28 10:58:11;;;;;;;;;;;;;;;7.55;44.68;100150.50;5037499;28;20024;-82
2023/11/28 11:00:39;;;;;;;;;;;;;;;7.53;45.04;100144.59;5043831;28;19963;-83
2023/11/28 11:03:05;;;;;;;;;;;;;;;7.53;44.92;100149.09;5039454;28;19925;-82
2023/11/28 11:05:34;;;;;;;;;;;;;;;7.52;44.99;100142.97;5048157;28;19939;-82
2023/11/28 11:08:01;;;;;;;;;;;;;;;7.51;45.38;100146.69;5043180;28;19968;-83
2023/11/28 11:10:30;;;;;;;;;;;;;;;7.52;45.18;100152.81;5042203;28;20075;-83
2023/11/28 11:13:12;;;;;;;;;;;;;;;7.52;45.33;100147.50;5042239;28;19920;-83
2023/11/28 11:15:53;;;;;;;;;;;;;;;7.47;44.63;100156.22;5046163;28;20011;-82
2023/11/28 11:18:38;;;;;;;;;;;;;;;7.46;45.06;100154.63;5040555;28;19920;-83
2023/11/28 11:21:26;;;;;;;;;;;;;;;7.47;45.32;100145.56;5044072;28;19947;-82
2023/11/28 11:23:53;;;;;;;;;;;;;;;7.48;45.12;100149.84;5041603;28;20460;-82
2023/11/28 11:26:28;;;;;;;;;;;;;;;7.51;45.00;100161.88;5046998;28;20003;-83
2023/11/28 11:28:55;;;;;;;;;;;;;;;7.51;45.08;100152.03;5040595;28;19921;-82
2023/11/28 11:31:22;;;;;;;;;;;;;;;7.53;45.32;100155.25;5041202;28;19924;-84
2023/11/28 11:33:48;;;;;;;;;;;;;;;7.55;45.22;100168.38;5039317;28;20588;-82
2023/11/28 11:36:15;;;;;;;;;;;;;;;7.54;45.23;100159.56;5040336;28;19925;-83
2023/11/28 11:38:40;;;;;;;;;;;;;;;7.55;45.02;100158.50;5040039;28;19970;-82
2023/11/28 11:41:10;;;;;;;;;;;;;;;7.56;45.53;100161.97;5045169;28;19944;-82
2023/11/28 11:43:36;;;;;;;;;;;;;;;7.60;45.27;100163.09;5040376;28;19921;-82
2023/11/28 11:46:12;;;;;;;;;;;;;;;7.66;44.90;100158.66;5040913;28;20389;-82
2023/11/28 11:48:37;;;;;;;;;;;;;;;7.77;44.95;100165.78;5044265;28;19943;-82
2023/11/28 11:51:03;;;;;;;;;;;;;;;7.87;45.20;100163.25;5040839;28;20397;-83
2023/11/28 11:53:33;;;;;;;;;;;;;;;8.00;44.70;100154.91;5039651;28;20002;-82
2023/11/28 11:56:01;;;;;;;;;;;;;;;8.12;44.52;100158.28;5041490;28;20350;-83
2023/11/28 11:58:27;;;;;;;;;;;;;;;8.29;44.11;100165.44;5037700;28;19925;-81
2023/11/28 12:00:53;;;;;;;;;;;;;;;8.39;44.50;100169.06;5040134;28;20485;-82
2023/11/28 12:03:18;;;;;;;;;;;;;;;8.58;44.18;100169.56;5044837;28;19989;-83
2023/11/28 12:05:53;;;;;;;;;;;;;;;8.79;43.71;100174.09;5039877;28;20669;-81
2023/11/28 12:08:19;;;;;;;;;;;;;;;9.02;43.58;100167.69;5035970;28;20019;-82
2023/11/28 12:10:44;;;;;;;;;;;;;;;9.22;43.78;100175.09;5039962;28;19917;-82
2023/11/28 12:13:15;;;;;;;;;;;;;;;9.48;41.84;100172.63;5034203;28;19932;-82
2023/11/28 12:15:41;;;;;;;;;;;;;;;9.64;42.77;100174.38;5035858;28;19935;-82
2023/11/28 12:18:10;;;;;;;;;;;;;;;9.69;41.25;100171.72;5037075;28;19921;-82
2023/11/28 12:20:35;;;;;;;;;;;;;;;9.79;42.27;100171.81;5041006;28;19924;-82
2023/11/28 12:23:01;;;;;;;;;;;;;;;10.02;42.59;100169.81;5037570;28;19921;-82
2023/11/28 12:25:27;;;;;;;;;;;;;;;10.25;40.38;100169.47;5037126;28;19920;-82
2023/11/28 12:27:53;;;;;;;;;;;;;;;10.40;41.53;100177.56;5037547;28;19920;-82
2023/11/28 12:30:19;;;;;;;;;;;;;;;10.48;40.73;100177.09;5035682;28;19917;-82
2023/11/28 12:32:45;;;;;;;;;;;;;;;10.39;41.11;100183.97;5039458;28;19960;-82
2023/11/28 12:35:11;;;;;;;;;;;;;;;10.16;41.30;100179.00;5040793;28;20035;-82
2023/11/28 12:37:37;;;;;;;;;;;;;;;9.94;41.75;100185.31;5038841;28;21255;-82
2023/11/28 12:40:09;;;;;;;;;;;;;;;9.73;42.36;100188.91;5037731;28;19961;-82
2023/11/28 12:42:42;;;;;;;;;;;;;;;9.53;42.83;100186.06;5037134;28;19925;-82